sensor_id;sensor_type;location;lat;lon;timestamp;P1;durP1;ratioP1;P2;durP2;ratioP2
44440;SDS011;30146;52.268;20.944;2023-07-29T00:00:07;13.40;;;7.10;;
44440;SDS011;30146;52.268;20.944;2023-07-29T00:02:41;9.20;;;7.10;;
44440;SDS011;30146;52.268;20.944;2023-07-29T00:05:13;13.70;;;8.90;;
44440;SDS011;30146;52.268;20.944;2023-07-29T00:07:44;12.00;;;7.20;;
44440;SDS011;30146;52.268;20.944;2023-07-29T00:10:15;10.10;;;7.20;;
44440;SDS011;30146;52.268;20.944;2023-07-29T00:12:46;10.80;;;7.50;;
44440;SDS011;30146;52.268;20.944;2023-07-29T00:15:17;9.20;;;7.10;;
44440;SDS011;30146;52.268;20.944;2023-07-29T00:17:48;8.70;;;6.80;;
44440;SDS011;30146;52.268;20.944;2023-07-29T00:20:19;10.70;;;6.90;;
44440;SDS011;30146;52.268;20.944;2023-07-29T00:22:50;9.20;;;7.20;;
44440;SDS011;30146;52.268;20.944;2023-07-29T00:25:22;10.80;;;7.20;;
44440;SDS011;30146;52.268;20.944;2023-07-29T00:27:54;12.20;;;7.40;;
44440;SDS011;30146;52.268;20.944;2023-07-29T00:30:26;10.70;;;6.90;;
44440;SDS011;30146;52.268;20.944;2023-07-29T00:32:57;8.50;;;7.30;;
44440;SDS011;30146;52.268;20.944;2023-07-29T00:35:28;9.90;;;6.50;;
44440;SDS011;30146;52.268;20.944;2023-07-29T00:38:00;11.40;;;7.10;;
44440;SDS011;30146;52.268;20.944;2023-07-29T00:40:31;16.50;;;7.20;;
44440;SDS011;30146;52.268;20.944;2023-07-29T00:43:05;10.70;;;6.90;;
44440;SDS011;30146;52.268;20.944;2023-07-29T00:45:36;8.70;;;7.40;;
44440;SDS011;30146;52.268;20.944;2023-07-29T00:48:07;8.50;;;7.10;;
44440;SDS011;30146;52.268;20.944;2023-07-29T00:50:40;11.90;;;7.40;;
44440;SDS011;30146;52.268;20.944;2023-07-29T00:53:11;22.30;;;13.80;;
44440;SDS011;30146;52.268;20.944;2023-07-29T00:55:42;24.00;;;15.10;;
44440;SDS011;30146;52.268;20.944;2023-07-29T00:58:13;14.20;;;10.90;;
44440;SDS011;30146;52.268;20.944;2023-07-29T01:00:44;13.90;;;9.00;;
44440;SDS011;30146;52.268;20.944;2023-07-29T01:03:15;22.50;;;9.70;;
44440;SDS011;30146;52.268;20.944;2023-07-29T01:05:54;17.00;;;9.10;;
44440;SDS011;30146;52.268;20.944;2023-07-29T01:08:33;10.60;;;8.50;;
44440;SDS011;30146;52.268;20.944;2023-07-29T01:11:18;12.90;;;9.70;;
44440;SDS011;30146;52.268;20.944;2023-07-29T01:14:01;11.20;;;9.50;;
44440;SDS011;30146;52.268;20.944;2023-07-29T01:16:39;15.60;;;9.70;;
44440;SDS011;30146;52.268;20.944;2023-07-29T01:19:18;16.80;;;10.20;;
44440;SDS011;30146;52.268;20.944;2023-07-29T01:22:03;13.40;;;10.80;;
44440;SDS011;30146;52.268;20.944;2023-07-29T01:24:36;14.50;;;9.80;;
44440;SDS011;30146;52.268;20.944;2023-07-29T01:27:08;17.50;;;9.70;;
44440;SDS011;30146;52.268;20.944;2023-07-29T01:29:38;16.70;;;9.50;;
44440;SDS011;30146;52.268;20.944;2023-07-29T01:32:10;14.80;;;10.50;;
44440;SDS011;30146;52.268;20.944;2023-07-29T01:34:45;13.40;;;8.80;;
44440;SDS011;30146;52.268;20.944;2023-07-29T01:37:24;10.00;;;8.90;;
44440;SDS011;30146;52.268;20.944;2023-07-29T01:39:59;14.00;;;9.90;;
44440;SDS011;30146;52.268;20.944;2023-07-29T01:42:30;10.90;;;9.30;;
44440;SDS011;30146;52.268;20.944;2023-07-29T01:45:02;15.60;;;9.20;;
44440;SDS011;30146;52.268;20.944;2023-07-29T01:47:33;12.90;;;9.70;;
44440;SDS011;30146;52.268;20.944;2023-07-29T01:50:09;12.60;;;9.30;;
44440;SDS011;30146;52.268;20.944;2023-07-29T01:52:40;10.00;;;8.60;;
44440;SDS011;30146;52.268;20.944;2023-07-29T01:55:11;15.00;;;10.10;;
44440;SDS011;30146;52.268;20.944;2023-07-29T01:57:43;11.80;;;9.60;;
44440;SDS011;30146;52.268;20.944;2023-07-29T02:00:14;13.50;;;10.10;;
44440;SDS011;30146;52.268;20.944;2023-07-29T02:02:46;11.50;;;9.40;;
44440;SDS011;30146;52.268;20.944;2023-07-29T02:05:18;14.50;;;9.60;;
44440;SDS011;30146;52.268;20.944;2023-07-29T02:07:49;10.70;;;9.20;;
44440;SDS011;30146;52.268;20.944;2023-07-29T02:10:20;12.10;;;9.10;;
44440;SDS011;30146;52.268;20.944;2023-07-29T02:12:51;12.60;;;9.80;;
44440;SDS011;30146;52.268;20.944;2023-07-29T02:15:21;11.80;;;9.10;;
44440;SDS011;30146;52.268;20.944;2023-07-29T02:17:52;12.70;;;9.40;;
44440;SDS011;30146;52.268;20.944;2023-07-29T02:20:23;11.70;;;9.50;;
44440;SDS011;30146;52.268;20.944;2023-07-29T02:22:54;11.10;;;9.10;;
44440;SDS011;30146;52.268;20.944;2023-07-29T02:25:25;12.70;;;9.90;;
44440;SDS011;30146;52.268;20.944;2023-07-29T02:27:56;10.40;;;9.10;;
44440;SDS011;30146;52.268;20.944;2023-07-29T02:30:27;11.00;;;9.90;;
44440;SDS011;30146;52.268;20.944;2023-07-29T02:32:58;11.20;;;9.40;;
44440;SDS011;30146;52.268;20.944;2023-07-29T02:35:29;10.50;;;9.40;;
44440;SDS011;30146;52.268;20.944;2023-07-29T02:38:01;11.00;;;9.80;;
44440;SDS011;30146;52.268;20.944;2023-07-29T02:40:31;11.30;;;9.80;;
44440;SDS011;30146;52.268;20.944;2023-07-29T02:43:02;12.60;;;9.90;;
44440;SDS011;30146;52.268;20.944;2023-07-29T02:45:34;13.00;;;9.60;;
44440;SDS011;30146;52.268;20.944;2023-07-29T02:48:05;11.50;;;9.50;;
44440;SDS011;30146;52.268;20.944;2023-07-29T02:50:36;11.30;;;9.40;;
44440;SDS011;30146;52.268;20.944;2023-07-29T02:53:07;12.00;;;9.90;;
44440;SDS011;30146;52.268;20.944;2023-07-29T02:55:40;11.70;;;10.50;;
44440;SDS011;30146;52.268;20.944;2023-07-29T02:58:11;9.90;;;8.90;;
44440;SDS011;30146;52.268;20.944;2023-07-29T03:00:42;11.30;;;10.10;;
44440;SDS011;30146;52.268;20.944;2023-07-29T03:03:13;10.90;;;9.60;;
44440;SDS011;30146;52.268;20.944;2023-07-29T03:05:45;10.40;;;9.30;;
44440;SDS011;30146;52.268;20.944;2023-07-29T03:08:16;10.70;;;9.20;;
44440;SDS011;30146;52.268;20.944;2023-07-29T03:10:47;11.20;;;8.50;;
44440;SDS011;30146;52.268;20.944;2023-07-29T03:13:18;10.00;;;9.00;;
44440;SDS011;30146;52.268;20.944;2023-07-29T03:15:49;11.10;;;9.90;;
44440;SDS011;30146;52.268;20.944;2023-07-29T03:18:20;9.60;;;8.20;;
44440;SDS011;30146;52.268;20.944;2023-07-29T03:20:53;9.20;;;7.80;;
44440;SDS011;30146;52.268;20.944;2023-07-29T03:23:26;13.80;;;8.90;;
44440;SDS011;30146;52.268;20.944;2023-07-29T03:25:59;10.10;;;9.10;;
44440;SDS011;30146;52.268;20.944;2023-07-29T03:28:38;9.80;;;8.80;;
44440;SDS011;30146;52.268;20.944;2023-07-29T03:31:11;10.70;;;9.60;;
44440;SDS011;30146;52.268;20.944;2023-07-29T03:33:42;10.10;;;8.70;;
44440;SDS011;30146;52.268;20.944;2023-07-29T03:36:14;10.90;;;9.40;;
44440;SDS011;30146;52.268;20.944;2023-07-29T03:38:47;10.40;;;9.30;;
44440;SDS011;30146;52.268;20.944;2023-07-29T03:41:18;10.50;;;9.30;;
44440;SDS011;30146;52.268;20.944;2023-07-29T03:43:49;11.70;;;9.20;;
44440;SDS011;30146;52.268;20.944;2023-07-29T03:46:20;11.00;;;9.90;;
44440;SDS011;30146;52.268;20.944;2023-07-29T03:48:51;11.20;;;10.00;;
44440;SDS011;30146;52.268;20.944;2023-07-29T03:51:22;10.50;;;9.40;;
44440;SDS011;30146;52.268;20.944;2023-07-29T03:53:52;10.80;;;9.40;;
44440;SDS011;30146;52.268;20.944;2023-07-29T03:56:23;9.80;;;8.80;;
44440;SDS011;30146;52.268;20.944;2023-07-29T03:58:57;9.20;;;8.20;;
44440;SDS011;30146;52.268;20.944;2023-07-29T04:01:41;10.40;;;9.20;;
44440;SDS011;30146;52.268;20.944;2023-07-29T04:04:12;11.10;;;8.40;;
44440;SDS011;30146;52.268;20.944;2023-07-29T04:06:43;11.10;;;9.10;;
44440;SDS011;30146;52.268;20.944;2023-07-29T04:09:17;10.80;;;9.20;;
44440;SDS011;30146;52.268;20.944;2023-07-29T04:11:48;11.40;;;8.10;;
44440;SDS011;30146;52.268;20.944;2023-07-29T04:14:19;11.00;;;8.70;;
44440;SDS011;30146;52.268;20.944;2023-07-29T04:16:50;9.00;;;8.10;;
44440;SDS011;30146;52.268;20.944;2023-07-29T04:19:21;9.50;;;8.10;;
44440;SDS011;30146;52.268;20.944;2023-07-29T04:21:52;9.00;;;8.10;;
44440;SDS011;30146;52.268;20.944;2023-07-29T04:24:23;9.20;;;8.30;;
44440;SDS011;30146;52.268;20.944;2023-07-29T04:26:56;8.80;;;7.90;;
44440;SDS011;30146;52.268;20.944;2023-07-29T04:29:32;7.80;;;7.00;;
44440;SDS011;30146;52.268;20.944;2023-07-29T04:32:05;8.10;;;7.40;;
44440;SDS011;30146;52.268;20.944;2023-07-29T04:34:36;7.90;;;6.70;;
44440;SDS011;30146;52.268;20.944;2023-07-29T04:37:08;8.50;;;6.70;;
44440;SDS011;30146;52.268;20.944;2023-07-29T04:39:41;8.50;;;7.60;;
44440;SDS011;30146;52.268;20.944;2023-07-29T04:42:12;8.40;;;7.40;;
44440;SDS011;30146;52.268;20.944;2023-07-29T04:44:42;8.80;;;6.70;;
44440;SDS011;30146;52.268;20.944;2023-07-29T04:47:13;8.70;;;7.00;;
44440;SDS011;30146;52.268;20.944;2023-07-29T04:49:44;7.70;;;7.00;;
44440;SDS011;30146;52.268;20.944;2023-07-29T04:52:15;8.20;;;7.40;;
44440;SDS011;30146;52.268;20.944;2023-07-29T04:54:48;9.40;;;8.10;;
44440;SDS011;30146;52.268;20.944;2023-07-29T04:57:27;9.00;;;8.10;;
44440;SDS011;30146;52.268;20.944;2023-07-29T04:59:57;8.60;;;7.80;;
44440;SDS011;30146;52.268;20.944;2023-07-29T05:02:28;8.50;;;7.60;;
44440;SDS011;30146;52.268;20.944;2023-07-29T05:05:00;8.90;;;8.00;;
44440;SDS011;30146;52.268;20.944;2023-07-29T05:07:34;10.20;;;7.70;;
44440;SDS011;30146;52.268;20.944;2023-07-29T05:10:07;9.50;;;8.50;;
44440;SDS011;30146;52.268;20.944;2023-07-29T05:12:40;10.30;;;9.10;;
44440;SDS011;30146;52.268;20.944;2023-07-29T05:15:11;10.60;;;9.20;;
44440;SDS011;30146;52.268;20.944;2023-07-29T05:21:36;11.20;;;9.80;;
44440;SDS011;30146;52.268;20.944;2023-07-29T05:24:07;15.40;;;10.60;;
44440;SDS011;30146;52.268;20.944;2023-07-29T05:26:38;17.10;;;13.20;;
44440;SDS011;30146;52.268;20.944;2023-07-29T05:29:09;15.60;;;13.60;;
44440;SDS011;30146;52.268;20.944;2023-07-29T05:31:40;19.80;;;13.30;;
44440;SDS011;30146;52.268;20.944;2023-07-29T05:34:11;15.60;;;12.90;;
44440;SDS011;30146;52.268;20.944;2023-07-29T05:36:48;14.70;;;12.90;;
44440;SDS011;30146;52.268;20.944;2023-07-29T05:39:19;16.80;;;13.50;;
44440;SDS011;30146;52.268;20.944;2023-07-29T05:49:30;13.30;;;11.90;;
44440;SDS011;30146;52.268;20.944;2023-07-29T05:52:04;15.60;;;12.40;;
44440;SDS011;30146;52.268;20.944;2023-07-29T05:54:36;15.10;;;13.10;;
44440;SDS011;30146;52.268;20.944;2023-07-29T05:57:07;14.30;;;12.80;;
44440;SDS011;30146;52.268;20.944;2023-07-29T05:59:38;17.80;;;12.80;;
44440;SDS011;30146;52.268;20.944;2023-07-29T06:02:09;14.00;;;12.50;;
44440;SDS011;30146;52.268;20.944;2023-07-29T06:08:37;15.60;;;10.90;;
44440;SDS011;30146;52.268;20.944;2023-07-29T06:11:08;12.60;;;11.20;;
44440;SDS011;30146;52.268;20.944;2023-07-29T06:13:39;12.50;;;11.20;;
44440;SDS011;30146;52.268;20.944;2023-07-29T06:16:09;11.70;;;10.50;;
44440;SDS011;30146;52.268;20.944;2023-07-29T06:18:40;13.30;;;11.90;;
44440;SDS011;30146;52.268;20.944;2023-07-29T06:21:11;12.00;;;9.90;;
44440;SDS011;30146;52.268;20.944;2023-07-29T06:23:45;11.80;;;9.50;;
44440;SDS011;30146;52.268;20.944;2023-07-29T06:26:16;12.20;;;10.80;;
44440;SDS011;30146;52.268;20.944;2023-07-29T06:28:47;11.30;;;10.10;;
44440;SDS011;30146;52.268;20.944;2023-07-29T06:31:18;12.60;;;10.00;;
44440;SDS011;30146;52.268;20.944;2023-07-29T06:33:50;11.50;;;10.30;;
44440;SDS011;30146;52.268;20.944;2023-07-29T06:36:22;15.00;;;9.90;;
44440;SDS011;30146;52.268;20.944;2023-07-29T06:38:53;10.70;;;9.60;;
44440;SDS011;30146;52.268;20.944;2023-07-29T06:41:24;14.80;;;9.30;;
44440;SDS011;30146;52.268;20.944;2023-07-29T06:43:55;9.50;;;8.50;;
44440;SDS011;30146;52.268;20.944;2023-07-29T06:46:27;10.10;;;8.50;;
44440;SDS011;30146;52.268;20.944;2023-07-29T06:48:59;10.00;;;9.00;;
44440;SDS011;30146;52.268;20.944;2023-07-29T06:51:30;9.50;;;8.70;;
44440;SDS011;30146;52.268;20.944;2023-07-29T06:54:03;8.30;;;7.10;;
44440;SDS011;30146;52.268;20.944;2023-07-29T06:56:34;8.90;;;7.90;;
44440;SDS011;30146;52.268;20.944;2023-07-29T06:59:08;8.00;;;6.30;;
44440;SDS011;30146;52.268;20.944;2023-07-29T07:01:42;8.20;;;7.40;;
44440;SDS011;30146;52.268;20.944;2023-07-29T07:04:13;10.30;;;6.20;;
44440;SDS011;30146;52.268;20.944;2023-07-29T07:06:50;8.50;;;7.30;;
44440;SDS011;30146;52.268;20.944;2023-07-29T07:09:27;9.20;;;7.50;;
44440;SDS011;30146;52.268;20.944;2023-07-29T07:11:58;10.80;;;7.90;;
44440;SDS011;30146;52.268;20.944;2023-07-29T07:14:31;6.80;;;6.20;;
44440;SDS011;30146;52.268;20.944;2023-07-29T07:17:03;8.00;;;7.20;;
44440;SDS011;30146;52.268;20.944;2023-07-29T07:19:38;13.00;;;9.60;;
44440;SDS011;30146;52.268;20.944;2023-07-29T07:22:09;10.30;;;7.70;;
44440;SDS011;30146;52.268;20.944;2023-07-29T07:24:39;9.40;;;7.00;;
44440;SDS011;30146;52.268;20.944;2023-07-29T07:27:12;7.90;;;6.70;;
44440;SDS011;30146;52.268;20.944;2023-07-29T07:29:43;13.20;;;6.50;;
44440;SDS011;30146;52.268;20.944;2023-07-29T07:32:13;9.30;;;8.10;;
44440;SDS011;30146;52.268;20.944;2023-07-29T07:34:44;8.00;;;7.00;;
44440;SDS011;30146;52.268;20.944;2023-07-29T07:37:15;8.60;;;7.70;;
44440;SDS011;30146;52.268;20.944;2023-07-29T07:39:46;8.60;;;6.80;;
44440;SDS011;30146;52.268;20.944;2023-07-29T07:42:16;7.80;;;7.10;;
44440;SDS011;30146;52.268;20.944;2023-07-29T07:44:47;8.30;;;7.30;;
44440;SDS011;30146;52.268;20.944;2023-07-29T07:47:18;6.90;;;5.80;;
44440;SDS011;30146;52.268;20.944;2023-07-29T07:49:49;9.40;;;6.20;;
44440;SDS011;30146;52.268;20.944;2023-07-29T07:52:20;7.70;;;5.80;;
44440;SDS011;30146;52.268;20.944;2023-07-29T07:54:52;6.60;;;5.40;;
44440;SDS011;30146;52.268;20.944;2023-07-29T07:57:24;11.30;;;5.70;;
44440;SDS011;30146;52.268;20.944;2023-07-29T07:59:54;11.60;;;8.00;;
44440;SDS011;30146;52.268;20.944;2023-07-29T08:02:25;7.20;;;6.50;;
44440;SDS011;30146;52.268;20.944;2023-07-29T08:04:56;16.40;;;5.30;;
44440;SDS011;30146;52.268;20.944;2023-07-29T08:07:27;7.20;;;5.30;;
44440;SDS011;30146;52.268;20.944;2023-07-29T08:09:58;10.20;;;6.40;;
44440;SDS011;30146;52.268;20.944;2023-07-29T08:12:28;11.80;;;5.40;;
44440;SDS011;30146;52.268;20.944;2023-07-29T08:14:59;8.00;;;5.70;;
44440;SDS011;30146;52.268;20.944;2023-07-29T08:17:30;5.30;;;4.60;;
44440;SDS011;30146;52.268;20.944;2023-07-29T08:20:02;5.20;;;3.90;;
44440;SDS011;30146;52.268;20.944;2023-07-29T08:22:35;8.50;;;5.40;;
44440;SDS011;30146;52.268;20.944;2023-07-29T08:25:07;6.70;;;5.10;;
44440;SDS011;30146;52.268;20.944;2023-07-29T08:27:38;7.10;;;4.10;;
44440;SDS011;30146;52.268;20.944;2023-07-29T08:30:09;11.30;;;4.50;;
44440;SDS011;30146;52.268;20.944;2023-07-29T08:32:41;8.50;;;5.30;;
44440;SDS011;30146;52.268;20.944;2023-07-29T08:35:13;9.30;;;5.00;;
44440;SDS011;30146;52.268;20.944;2023-07-29T08:37:45;9.20;;;5.40;;
44440;SDS011;30146;52.268;20.944;2023-07-29T08:42:56;5.40;;;3.80;;
44440;SDS011;30146;52.268;20.944;2023-07-29T08:45:34;6.30;;;3.80;;
44440;SDS011;30146;52.268;20.944;2023-07-29T08:48:07;14.30;;;6.20;;
44440;SDS011;30146;52.268;20.944;2023-07-29T08:50:39;8.60;;;4.10;;
44440;SDS011;30146;52.268;20.944;2023-07-29T08:53:13;5.90;;;3.60;;
44440;SDS011;30146;52.268;20.944;2023-07-29T08:55:45;4.30;;;3.30;;
44440;SDS011;30146;52.268;20.944;2023-07-29T08:58:19;3.60;;;3.10;;
44440;SDS011;30146;52.268;20.944;2023-07-29T09:00:50;3.80;;;3.40;;
44440;SDS011;30146;52.268;20.944;2023-07-29T09:03:21;3.70;;;2.60;;
44440;SDS011;30146;52.268;20.944;2023-07-29T09:05:52;4.40;;;3.00;;
44440;SDS011;30146;52.268;20.944;2023-07-29T09:08:24;3.60;;;3.00;;
44440;SDS011;30146;52.268;20.944;2023-07-29T09:10:55;3.00;;;2.40;;
44440;SDS011;30146;52.268;20.944;2023-07-29T09:13:26;2.60;;;2.30;;
44440;SDS011;30146;52.268;20.944;2023-07-29T09:15:58;3.60;;;2.60;;
44440;SDS011;30146;52.268;20.944;2023-07-29T09:18:31;4.20;;;2.30;;
44440;SDS011;30146;52.268;20.944;2023-07-29T09:21:02;3.60;;;3.00;;
44440;SDS011;30146;52.268;20.944;2023-07-29T09:23:39;2.70;;;2.40;;
44440;SDS011;30146;52.268;20.944;2023-07-29T09:26:11;3.20;;;2.50;;
44440;SDS011;30146;52.268;20.944;2023-07-29T09:28:42;4.20;;;3.30;;
44440;SDS011;30146;52.268;20.944;2023-07-29T09:31:25;3.10;;;2.20;;
44440;SDS011;30146;52.268;20.944;2023-07-29T09:33:58;3.10;;;2.20;;
44440;SDS011;30146;52.268;20.944;2023-07-29T09:40:12;3.10;;;1.90;;
44440;SDS011;30146;52.268;20.944;2023-07-29T09:42:51;9.90;;;3.10;;
44440;SDS011;30146;52.268;20.944;2023-07-29T09:45:25;4.50;;;2.10;;
44440;SDS011;30146;52.268;20.944;2023-07-29T09:47:57;4.80;;;2.10;;
44440;SDS011;30146;52.268;20.944;2023-07-29T09:50:29;2.40;;;2.20;;
44440;SDS011;30146;52.268;20.944;2023-07-29T09:53:01;2.90;;;2.30;;
44440;SDS011;30146;52.268;20.944;2023-07-29T09:55:52;2.70;;;2.00;;
44440;SDS011;30146;52.268;20.944;2023-07-29T09:58:27;2.20;;;2.00;;
44440;SDS011;30146;52.268;20.944;2023-07-29T10:11:36;3.10;;;2.70;;
44440;SDS011;30146;52.268;20.944;2023-07-29T10:14:14;4.20;;;2.50;;
44440;SDS011;30146;52.268;20.944;2023-07-29T10:16:46;3.50;;;2.70;;
44440;SDS011;30146;52.268;20.944;2023-07-29T10:19:18;3.00;;;2.10;;
44440;SDS011;30146;52.268;20.944;2023-07-29T10:21:50;6.20;;;2.20;;
44440;SDS011;30146;52.268;20.944;2023-07-29T10:24:22;2.60;;;2.30;;
44440;SDS011;30146;52.268;20.944;2023-07-29T10:26:59;3.90;;;2.40;;
44440;SDS011;30146;52.268;20.944;2023-07-29T10:29:31;9.80;;;2.60;;
44440;SDS011;30146;52.268;20.944;2023-07-29T10:32:07;2.60;;;2.10;;
44440;SDS011;30146;52.268;20.944;2023-07-29T10:34:39;3.00;;;2.30;;
44440;SDS011;30146;52.268;20.944;2023-07-29T10:37:11;1.90;;;1.70;;
44440;SDS011;30146;52.268;20.944;2023-07-29T10:39:51;3.90;;;1.80;;
44440;SDS011;30146;52.268;20.944;2023-07-29T10:42:24;3.60;;;1.90;;
44440;SDS011;30146;52.268;20.944;2023-07-29T10:44:55;2.50;;;1.70;;
44440;SDS011;30146;52.268;20.944;2023-07-29T10:47:26;5.10;;;2.10;;
44440;SDS011;30146;52.268;20.944;2023-07-29T10:50:00;2.20;;;2.00;;
44440;SDS011;30146;52.268;20.944;2023-07-29T10:52:40;4.70;;;2.50;;
44440;SDS011;30146;52.268;20.944;2023-07-29T10:55:28;5.30;;;2.50;;
44440;SDS011;30146;52.268;20.944;2023-07-29T10:58:08;4.70;;;2.40;;
44440;SDS011;30146;52.268;20.944;2023-07-29T11:00:45;2.10;;;1.90;;
44440;SDS011;30146;52.268;20.944;2023-07-29T11:03:18;3.30;;;2.10;;
44440;SDS011;30146;52.268;20.944;2023-07-29T11:05:52;2.00;;;1.80;;
44440;SDS011;30146;52.268;20.944;2023-07-29T11:08:26;2.80;;;2.00;;
44440;SDS011;30146;52.268;20.944;2023-07-29T11:11:02;2.40;;;2.10;;
44440;SDS011;30146;52.268;20.944;2023-07-29T11:13:35;3.60;;;2.40;;
44440;SDS011;30146;52.268;20.944;2023-07-29T11:16:10;2.30;;;1.90;;
44440;SDS011;30146;52.268;20.944;2023-07-29T11:18:48;3.20;;;2.00;;
44440;SDS011;30146;52.268;20.944;2023-07-29T11:21:19;3.40;;;1.90;;
44440;SDS011;30146;52.268;20.944;2023-07-29T11:23:53;4.60;;;1.90;;
44440;SDS011;30146;52.268;20.944;2023-07-29T11:26:26;4.20;;;1.90;;
44440;SDS011;30146;52.268;20.944;2023-07-29T11:28:59;2.20;;;1.80;;
44440;SDS011;30146;52.268;20.944;2023-07-29T11:31:39;2.30;;;1.90;;
44440;SDS011;30146;52.268;20.944;2023-07-29T11:34:10;3.70;;;1.90;;
44440;SDS011;30146;52.268;20.944;2023-07-29T11:36:46;2.40;;;2.20;;
44440;SDS011;30146;52.268;20.944;2023-07-29T11:39:17;2.30;;;2.10;;
44440;SDS011;30146;52.268;20.944;2023-07-29T11:41:50;4.50;;;2.20;;
44440;SDS011;30146;52.268;20.944;2023-07-29T11:44:21;3.10;;;2.10;;
44440;SDS011;30146;52.268;20.944;2023-07-29T11:46:51;4.00;;;1.80;;
44440;SDS011;30146;52.268;20.944;2023-07-29T11:49:22;2.70;;;1.60;;
44440;SDS011;30146;52.268;20.944;2023-07-29T11:51:53;2.10;;;1.90;;
44440;SDS011;30146;52.268;20.944;2023-07-29T11:54:25;2.30;;;1.90;;
44440;SDS011;30146;52.268;20.944;2023-07-29T11:56:56;2.20;;;2.00;;
44440;SDS011;30146;52.268;20.944;2023-07-29T11:59:28;2.70;;;2.10;;
44440;SDS011;30146;52.268;20.944;2023-07-29T12:02:00;5.90;;;2.20;;
44440;SDS011;30146;52.268;20.944;2023-07-29T12:04:35;3.30;;;2.00;;
44440;SDS011;30146;52.268;20.944;2023-07-29T12:07:07;2.10;;;1.90;;
44440;SDS011;30146;52.268;20.944;2023-07-29T12:09:38;6.10;;;2.20;;
44440;SDS011;30146;52.268;20.944;2023-07-29T12:12:11;2.50;;;2.20;;
44440;SDS011;30146;52.268;20.944;2023-07-29T12:14:44;2.30;;;2.10;;
44440;SDS011;30146;52.268;20.944;2023-07-29T12:17:16;1.80;;;1.70;;
44440;SDS011;30146;52.268;20.944;2023-07-29T12:19:47;3.00;;;2.00;;
44440;SDS011;30146;52.268;20.944;2023-07-29T12:22:19;2.10;;;1.90;;
44440;SDS011;30146;52.268;20.944;2023-07-29T12:24:50;2.20;;;1.70;;
44440;SDS011;30146;52.268;20.944;2023-07-29T12:27:22;3.10;;;2.10;;
44440;SDS011;30146;52.268;20.944;2023-07-29T12:29:52;4.20;;;2.60;;
44440;SDS011;30146;52.268;20.944;2023-07-29T12:32:26;2.70;;;2.30;;
44440;SDS011;30146;52.268;20.944;2023-07-29T12:34:58;5.30;;;2.10;;
44440;SDS011;30146;52.268;20.944;2023-07-29T12:37:32;3.70;;;2.20;;
44440;SDS011;30146;52.268;20.944;2023-07-29T12:40:03;2.90;;;2.00;;
44440;SDS011;30146;52.268;20.944;2023-07-29T12:42:36;3.10;;;2.60;;
44440;SDS011;30146;52.268;20.944;2023-07-29T12:45:08;6.60;;;2.40;;
44440;SDS011;30146;52.268;20.944;2023-07-29T12:47:49;2.90;;;2.00;;
44440;SDS011;30146;52.268;20.944;2023-07-29T12:50:42;5.40;;;3.50;;
44440;SDS011;30146;52.268;20.944;2023-07-29T12:53:14;5.10;;;3.40;;
44440;SDS011;30146;52.268;20.944;2023-07-29T12:55:46;3.50;;;2.10;;
44440;SDS011;30146;52.268;20.944;2023-07-29T12:58:18;2.50;;;2.10;;
44440;SDS011;30146;52.268;20.944;2023-07-29T13:00:49;3.00;;;2.20;;
44440;SDS011;30146;52.268;20.944;2023-07-29T13:03:23;2.30;;;2.00;;
44440;SDS011;30146;52.268;20.944;2023-07-29T13:05:57;4.90;;;2.20;;
44440;SDS011;30146;52.268;20.944;2023-07-29T13:08:37;4.00;;;2.50;;
44440;SDS011;30146;52.268;20.944;2023-07-29T13:11:11;3.30;;;2.40;;
44440;SDS011;30146;52.268;20.944;2023-07-29T13:16:49;7.80;;;2.50;;
44440;SDS011;30146;52.268;20.944;2023-07-29T13:19:27;2.40;;;1.90;;
44440;SDS011;30146;52.268;20.944;2023-07-29T13:22:12;8.30;;;2.20;;
44440;SDS011;30146;52.268;20.944;2023-07-29T13:24:56;3.00;;;2.20;;
44440;SDS011;30146;52.268;20.944;2023-07-29T13:30:25;2.90;;;2.60;;
44440;SDS011;30146;52.268;20.944;2023-07-29T13:33:10;2.40;;;2.20;;
44440;SDS011;30146;52.268;20.944;2023-07-29T13:35:41;2.20;;;2.00;;
44440;SDS011;30146;52.268;20.944;2023-07-29T13:54:21;4.60;;;2.60;;
44440;SDS011;30146;52.268;20.944;2023-07-29T13:56:52;2.70;;;2.40;;
44440;SDS011;30146;52.268;20.944;2023-07-29T13:59:23;3.60;;;3.00;;
44440;SDS011;30146;52.268;20.944;2023-07-29T14:01:54;5.50;;;3.10;;
44440;SDS011;30146;52.268;20.944;2023-07-29T14:04:37;3.10;;;2.70;;
44440;SDS011;30146;52.268;20.944;2023-07-29T14:07:21;3.60;;;2.80;;
44440;SDS011;30146;52.268;20.944;2023-07-29T14:09:56;5.20;;;2.80;;
44440;SDS011;30146;52.268;20.944;2023-07-29T14:12:29;3.00;;;2.40;;
44440;SDS011;30146;52.268;20.944;2023-07-29T14:15:00;2.50;;;2.20;;
44440;SDS011;30146;52.268;20.944;2023-07-29T14:17:34;3.70;;;2.80;;
44440;SDS011;30146;52.268;20.944;2023-07-29T14:20:05;4.00;;;2.30;;
44440;SDS011;30146;52.268;20.944;2023-07-29T14:22:37;4.80;;;4.30;;
44440;SDS011;30146;52.268;20.944;2023-07-29T14:25:08;3.80;;;3.00;;
44440;SDS011;30146;52.268;20.944;2023-07-29T14:27:40;4.80;;;2.00;;
44440;SDS011;30146;52.268;20.944;2023-07-29T14:33:03;4.70;;;3.10;;
44440;SDS011;30146;52.268;20.944;2023-07-29T14:38:23;5.90;;;3.60;;
44440;SDS011;30146;52.268;20.944;2023-07-29T14:40:54;4.30;;;2.90;;
44440;SDS011;30146;52.268;20.944;2023-07-29T14:43:25;3.20;;;2.20;;
44440;SDS011;30146;52.268;20.944;2023-07-29T14:45:56;3.70;;;2.30;;
44440;SDS011;30146;52.268;20.944;2023-07-29T14:51:45;5.40;;;4.20;;
44440;SDS011;30146;52.268;20.944;2023-07-29T14:54:19;6.30;;;3.20;;
44440;SDS011;30146;52.268;20.944;2023-07-29T14:59:50;5.30;;;3.00;;
44440;SDS011;30146;52.268;20.944;2023-07-29T15:02:22;7.90;;;3.90;;
44440;SDS011;30146;52.268;20.944;2023-07-29T15:04:58;3.90;;;3.50;;
44440;SDS011;30146;52.268;20.944;2023-07-29T15:07:33;4.00;;;2.50;;
44440;SDS011;30146;52.268;20.944;2023-07-29T15:10:09;48.80;;;39.30;;
44440;SDS011;30146;52.268;20.944;2023-07-29T15:12:43;31.30;;;21.60;;
44440;SDS011;30146;52.268;20.944;2023-07-29T15:15:14;5.90;;;3.50;;
44440;SDS011;30146;52.268;20.944;2023-07-29T15:17:44;3.40;;;2.60;;
44440;SDS011;30146;52.268;20.944;2023-07-29T15:20:15;4.30;;;2.80;;
44440;SDS011;30146;52.268;20.944;2023-07-29T15:22:46;2.50;;;2.30;;
44440;SDS011;30146;52.268;20.944;2023-07-29T15:25:17;2.60;;;2.20;;
44440;SDS011;30146;52.268;20.944;2023-07-29T15:27:48;6.60;;;2.60;;
44440;SDS011;30146;52.268;20.944;2023-07-29T15:30:19;2.50;;;2.30;;
44440;SDS011;30146;52.268;20.944;2023-07-29T15:32:50;5.40;;;2.50;;
44440;SDS011;30146;52.268;20.944;2023-07-29T15:35:22;3.70;;;2.30;;
44440;SDS011;30146;52.268;20.944;2023-07-29T15:37:53;2.80;;;2.50;;
44440;SDS011;30146;52.268;20.944;2023-07-29T15:40:24;3.10;;;2.00;;
44440;SDS011;30146;52.268;20.944;2023-07-29T15:42:54;4.00;;;3.10;;
44440;SDS011;30146;52.268;20.944;2023-07-29T15:45:28;4.20;;;2.60;;
44440;SDS011;30146;52.268;20.944;2023-07-29T15:47:59;2.90;;;2.20;;
44440;SDS011;30146;52.268;20.944;2023-07-29T15:50:30;3.80;;;3.30;;
44440;SDS011;30146;52.268;20.944;2023-07-29T15:53:01;3.50;;;2.60;;
44440;SDS011;30146;52.268;20.944;2023-07-29T15:55:32;4.60;;;2.40;;
44440;SDS011;30146;52.268;20.944;2023-07-29T15:58:05;3.70;;;2.20;;
44440;SDS011;30146;52.268;20.944;2023-07-29T16:00:36;4.70;;;2.30;;
44440;SDS011;30146;52.268;20.944;2023-07-29T16:03:07;5.00;;;2.50;;
44440;SDS011;30146;52.268;20.944;2023-07-29T16:05:38;3.10;;;2.50;;